sensor_id;sensor_type;location;lat;lon;timestamp;P1;durP1;ratioP1;P2;durP2;ratioP2
48853;SDS011;34673;52.808;17.856;2023-07-29T00:01:57;6.20;;;4.60;;
48853;SDS011;34673;52.808;17.856;2023-07-29T00:04:27;5.30;;;4.67;;
48853;SDS011;34673;52.808;17.856;2023-07-29T00:06:54;7.50;;;4.93;;
48853;SDS011;34673;52.808;17.856;2023-07-29T00:09:21;8.82;;;4.88;;
48853;SDS011;34673;52.808;17.856;2023-07-29T00:11:48;6.93;;;4.85;;
48853;SDS011;34673;52.808;17.856;2023-07-29T00:14:15;6.13;;;4.55;;
48853;SDS011;34673;52.808;17.856;2023-07-29T00:16:42;6.38;;;4.05;;
48853;SDS011;34673;52.808;17.856;2023-07-29T00:19:10;5.50;;;4.40;;
48853;SDS011;34673;52.808;17.856;2023-07-29T00:21:37;4.65;;;4.10;;
48853;SDS011;34673;52.808;17.856;2023-07-29T00:24:04;5.50;;;4.53;;
48853;SDS011;34673;52.808;17.856;2023-07-29T00:26:31;5.90;;;4.38;;
48853;SDS011;34673;52.808;17.856;2023-07-29T00:28:59;5.70;;;4.60;;
48853;SDS011;34673;52.808;17.856;2023-07-29T00:31:27;6.68;;;4.10;;
48853;SDS011;34673;52.808;17.856;2023-07-29T00:33:56;7.20;;;4.65;;
48853;SDS011;34673;52.808;17.856;2023-07-29T00:36:24;5.50;;;4.65;;
48853;SDS011;34673;52.808;17.856;2023-07-29T00:38:51;6.60;;;5.07;;
48853;SDS011;34673;52.808;17.856;2023-07-29T00:41:21;5.90;;;4.35;;
48853;SDS011;34673;52.808;17.856;2023-07-29T00:43:49;5.22;;;4.55;;
48853;SDS011;34673;52.808;17.856;2023-07-29T00:46:16;5.15;;;3.92;;
48853;SDS011;34673;52.808;17.856;2023-07-29T00:48:43;5.22;;;4.40;;
48853;SDS011;34673;52.808;17.856;2023-07-29T00:51:11;5.22;;;4.05;;
48853;SDS011;34673;52.808;17.856;2023-07-29T00:53:38;6.18;;;4.53;;
48853;SDS011;34673;52.808;17.856;2023-07-29T00:56:06;8.20;;;5.28;;
48853;SDS011;34673;52.808;17.856;2023-07-29T00:58:33;6.57;;;5.53;;
48853;SDS011;34673;52.808;17.856;2023-07-29T01:01:01;7.22;;;5.13;;
48853;SDS011;34673;52.808;17.856;2023-07-29T01:03:28;8.50;;;4.97;;
48853;SDS011;34673;52.808;17.856;2023-07-29T01:06:01;7.53;;;5.28;;
48853;SDS011;34673;52.808;17.856;2023-07-29T01:14:19;7.47;;;5.13;;
48853;SDS011;34673;52.808;17.856;2023-07-29T01:17:07;6.35;;;5.35;;
48853;SDS011;34673;52.808;17.856;2023-07-29T01:22:22;6.03;;;5.18;;
48853;SDS011;34673;52.808;17.856;2023-07-29T01:24:50;5.38;;;4.07;;
48853;SDS011;34673;52.808;17.856;2023-07-29T01:27:17;8.48;;;4.03;;
48853;SDS011;34673;52.808;17.856;2023-07-29T01:29:45;5.28;;;4.20;;
48853;SDS011;34673;52.808;17.856;2023-07-29T01:32:14;7.35;;;5.57;;
48853;SDS011;34673;52.808;17.856;2023-07-29T01:35:31;7.70;;;5.82;;
48853;SDS011;34673;52.808;17.856;2023-07-29T01:38:05;6.10;;;4.40;;
48853;SDS011;34673;52.808;17.856;2023-07-29T01:40:36;6.57;;;5.07;;
48853;SDS011;34673;52.808;17.856;2023-07-29T01:43:04;5.85;;;4.68;;
48853;SDS011;34673;52.808;17.856;2023-07-29T01:45:31;5.75;;;4.65;;
48853;SDS011;34673;52.808;17.856;2023-07-29T01:48:02;5.38;;;4.50;;
48853;SDS011;34673;52.808;17.856;2023-07-29T01:50:29;5.18;;;4.55;;
48853;SDS011;34673;52.808;17.856;2023-07-29T01:52:58;8.18;;;5.30;;
48853;SDS011;34673;52.808;17.856;2023-07-29T01:55:25;6.90;;;5.13;;
48853;SDS011;34673;52.808;17.856;2023-07-29T01:57:53;5.75;;;4.90;;
48853;SDS011;34673;52.808;17.856;2023-07-29T02:00:22;7.75;;;4.75;;
48853;SDS011;34673;52.808;17.856;2023-07-29T02:02:49;5.90;;;5.28;;
48853;SDS011;34673;52.808;17.856;2023-07-29T02:05:17;5.05;;;4.22;;
48853;SDS011;34673;52.808;17.856;2023-07-29T02:07:44;4.32;;;3.67;;
48853;SDS011;34673;52.808;17.856;2023-07-29T02:10:11;4.45;;;3.85;;
48853;SDS011;34673;52.808;17.856;2023-07-29T02:12:38;5.10;;;3.78;;
48853;SDS011;34673;52.808;17.856;2023-07-29T02:15:06;4.25;;;3.30;;
48853;SDS011;34673;52.808;17.856;2023-07-29T02:17:33;6.45;;;4.70;;
48853;SDS011;34673;52.808;17.856;2023-07-29T02:20:01;5.10;;;4.30;;
48853;SDS011;34673;52.808;17.856;2023-07-29T02:22:30;4.10;;;3.60;;
48853;SDS011;34673;52.808;17.856;2023-07-29T02:24:57;4.72;;;3.63;;
48853;SDS011;34673;52.808;17.856;2023-07-29T02:27:24;5.57;;;4.25;;
48853;SDS011;34673;52.808;17.856;2023-07-29T02:29:53;4.88;;;3.33;;
48853;SDS011;34673;52.808;17.856;2023-07-29T02:32:21;4.30;;;3.80;;
48853;SDS011;34673;52.808;17.856;2023-07-29T02:34:48;4.10;;;3.55;;
48853;SDS011;34673;52.808;17.856;2023-07-29T02:37:16;5.90;;;3.92;;
48853;SDS011;34673;52.808;17.856;2023-07-29T02:39:44;4.05;;;3.40;;
48853;SDS011;34673;52.808;17.856;2023-07-29T02:42:11;5.68;;;3.70;;
48853;SDS011;34673;52.808;17.856;2023-07-29T02:44:39;5.60;;;4.68;;
48853;SDS011;34673;52.808;17.856;2023-07-29T02:47:07;6.85;;;5.28;;
48853;SDS011;34673;52.808;17.856;2023-07-29T02:49:34;7.38;;;5.65;;
48853;SDS011;34673;52.808;17.856;2023-07-29T02:52:01;6.80;;;5.80;;
48853;SDS011;34673;52.808;17.856;2023-07-29T02:54:29;6.90;;;5.80;;
48853;SDS011;34673;52.808;17.856;2023-07-29T02:56:56;6.72;;;5.63;;
48853;SDS011;34673;52.808;17.856;2023-07-29T02:59:23;8.75;;;5.55;;
48853;SDS011;34673;52.808;17.856;2023-07-29T03:01:51;6.28;;;5.53;;
48853;SDS011;34673;52.808;17.856;2023-07-29T03:04:20;6.13;;;5.27;;
48853;SDS011;34673;52.808;17.856;2023-07-29T03:06:48;7.18;;;5.22;;
48853;SDS011;34673;52.808;17.856;2023-07-29T03:09:15;6.07;;;4.72;;
48853;SDS011;34673;52.808;17.856;2023-07-29T03:11:42;4.88;;;4.30;;
48853;SDS011;34673;52.808;17.856;2023-07-29T03:14:09;5.95;;;3.90;;
48853;SDS011;34673;52.808;17.856;2023-07-29T03:16:37;4.65;;;3.83;;
48853;SDS011;34673;52.808;17.856;2023-07-29T03:19:05;6.03;;;3.63;;
48853;SDS011;34673;52.808;17.856;2023-07-29T03:21:33;5.72;;;4.90;;
48853;SDS011;34673;52.808;17.856;2023-07-29T03:24:00;7.60;;;5.72;;
48853;SDS011;34673;52.808;17.856;2023-07-29T03:26:27;6.50;;;5.00;;
48853;SDS011;34673;52.808;17.856;2023-07-29T03:28:55;8.27;;;5.18;;
48853;SDS011;34673;52.808;17.856;2023-07-29T03:31:22;6.47;;;5.25;;
48853;SDS011;34673;52.808;17.856;2023-07-29T03:33:49;6.32;;;4.70;;
48853;SDS011;34673;52.808;17.856;2023-07-29T03:36:16;6.70;;;5.35;;
48853;SDS011;34673;52.808;17.856;2023-07-29T03:38:43;7.43;;;5.07;;
48853;SDS011;34673;52.808;17.856;2023-07-29T03:41:11;8.90;;;6.68;;
48853;SDS011;34673;52.808;17.856;2023-07-29T03:43:39;8.07;;;5.68;;
48853;SDS011;34673;52.808;17.856;2023-07-29T03:46:06;7.28;;;6.25;;
48853;SDS011;34673;52.808;17.856;2023-07-29T03:48:38;7.38;;;5.90;;
48853;SDS011;34673;52.808;17.856;2023-07-29T03:51:05;7.15;;;5.20;;
48853;SDS011;34673;52.808;17.856;2023-07-29T03:53:32;6.65;;;5.68;;
48853;SDS011;34673;52.808;17.856;2023-07-29T03:56:00;8.23;;;6.03;;
48853;SDS011;34673;52.808;17.856;2023-07-29T03:58:27;6.78;;;5.43;;
48853;SDS011;34673;52.808;17.856;2023-07-29T04:00:54;8.50;;;6.00;;
48853;SDS011;34673;52.808;17.856;2023-07-29T04:03:21;7.20;;;5.30;;
48853;SDS011;34673;52.808;17.856;2023-07-29T04:05:51;6.33;;;5.00;;
48853;SDS011;34673;52.808;17.856;2023-07-29T04:08:19;7.28;;;5.22;;
48853;SDS011;34673;52.808;17.856;2023-07-29T04:10:46;6.93;;;5.65;;
48853;SDS011;34673;52.808;17.856;2023-07-29T04:13:13;7.28;;;5.75;;
48853;SDS011;34673;52.808;17.856;2023-07-29T04:15:40;7.95;;;5.70;;
48853;SDS011;34673;52.808;17.856;2023-07-29T04:18:07;7.50;;;5.20;;
48853;SDS011;34673;52.808;17.856;2023-07-29T04:20:35;5.78;;;5.13;;
48853;SDS011;34673;52.808;17.856;2023-07-29T04:23:02;6.50;;;5.38;;
48853;SDS011;34673;52.808;17.856;2023-07-29T04:25:30;5.95;;;4.63;;
48853;SDS011;34673;52.808;17.856;2023-07-29T04:27:57;9.10;;;5.38;;
48853;SDS011;34673;52.808;17.856;2023-07-29T04:30:25;5.53;;;4.93;;
48853;SDS011;34673;52.808;17.856;2023-07-29T04:32:52;6.45;;;5.15;;
48853;SDS011;34673;52.808;17.856;2023-07-29T04:35:20;8.65;;;5.00;;
48853;SDS011;34673;52.808;17.856;2023-07-29T04:37:48;6.93;;;4.70;;
48853;SDS011;34673;52.808;17.856;2023-07-29T04:40:15;7.32;;;4.78;;
48853;SDS011;34673;52.808;17.856;2023-07-29T04:42:42;6.35;;;5.05;;
48853;SDS011;34673;52.808;17.856;2023-07-29T04:45:10;8.45;;;5.07;;
48853;SDS011;34673;52.808;17.856;2023-07-29T04:47:37;5.38;;;4.70;;
48853;SDS011;34673;52.808;17.856;2023-07-29T04:50:04;6.05;;;5.28;;
48853;SDS011;34673;52.808;17.856;2023-07-29T04:52:33;7.72;;;4.28;;
48853;SDS011;34673;52.808;17.856;2023-07-29T04:55:00;5.53;;;4.38;;
48853;SDS011;34673;52.808;17.856;2023-07-29T04:57:27;5.50;;;4.68;;
48853;SDS011;34673;52.808;17.856;2023-07-29T04:59:55;4.90;;;4.20;;
48853;SDS011;34673;52.808;17.856;2023-07-29T05:02:23;5.85;;;4.15;;
48853;SDS011;34673;52.808;17.856;2023-07-29T05:04:50;6.03;;;4.72;;
48853;SDS011;34673;52.808;17.856;2023-07-29T05:07:17;7.32;;;4.38;;
48853;SDS011;34673;52.808;17.856;2023-07-29T05:09:44;5.50;;;3.97;;
48853;SDS011;34673;52.808;17.856;2023-07-29T05:12:11;4.93;;;4.05;;
48853;SDS011;34673;52.808;17.856;2023-07-29T05:14:38;4.68;;;4.13;;
48853;SDS011;34673;52.808;17.856;2023-07-29T05:17:05;6.68;;;4.47;;
48853;SDS011;34673;52.808;17.856;2023-07-29T05:19:32;5.30;;;3.92;;
48853;SDS011;34673;52.808;17.856;2023-07-29T05:22:00;5.65;;;4.18;;
48853;SDS011;34673;52.808;17.856;2023-07-29T05:24:27;4.70;;;4.00;;
48853;SDS011;34673;52.808;17.856;2023-07-29T05:26:54;6.60;;;4.10;;
48853;SDS011;34673;52.808;17.856;2023-07-29T05:29:22;6.40;;;4.78;;
48853;SDS011;34673;52.808;17.856;2023-07-29T05:31:49;7.80;;;4.88;;
48853;SDS011;34673;52.808;17.856;2023-07-29T05:34:18;6.97;;;4.72;;
48853;SDS011;34673;52.808;17.856;2023-07-29T05:36:45;6.60;;;5.78;;
48853;SDS011;34673;52.808;17.856;2023-07-29T05:39:12;6.72;;;5.43;;
48853;SDS011;34673;52.808;17.856;2023-07-29T05:41:40;6.85;;;5.32;;
48853;SDS011;34673;52.808;17.856;2023-07-29T05:44:07;5.90;;;5.00;;
48853;SDS011;34673;52.808;17.856;2023-07-29T05:46:36;6.03;;;4.80;;
48853;SDS011;34673;52.808;17.856;2023-07-29T05:49:04;7.22;;;5.00;;
48853;SDS011;34673;52.808;17.856;2023-07-29T05:51:31;5.72;;;5.13;;
48853;SDS011;34673;52.808;17.856;2023-07-29T05:53:58;7.03;;;4.68;;
48853;SDS011;34673;52.808;17.856;2023-07-29T05:56:25;6.45;;;4.55;;
48853;SDS011;34673;52.808;17.856;2023-07-29T05:58:53;6.63;;;4.47;;
48853;SDS011;34673;52.808;17.856;2023-07-29T06:01:20;9.02;;;4.47;;
48853;SDS011;34673;52.808;17.856;2023-07-29T06:03:48;10.73;;;4.97;;
48853;SDS011;34673;52.808;17.856;2023-07-29T06:06:16;6.55;;;4.40;;
48853;SDS011;34673;52.808;17.856;2023-07-29T06:08:43;6.40;;;4.20;;
48853;SDS011;34673;52.808;17.856;2023-07-29T06:11:11;6.18;;;4.68;;
48853;SDS011;34673;52.808;17.856;2023-07-29T06:13:38;6.30;;;4.43;;
48853;SDS011;34673;52.808;17.856;2023-07-29T06:16:05;5.70;;;4.57;;
48853;SDS011;34673;52.808;17.856;2023-07-29T06:18:33;5.55;;;4.35;;
48853;SDS011;34673;52.808;17.856;2023-07-29T06:21:00;5.72;;;4.57;;
48853;SDS011;34673;52.808;17.856;2023-07-29T06:23:27;5.32;;;4.60;;
48853;SDS011;34673;52.808;17.856;2023-07-29T06:25:54;4.68;;;4.15;;
48853;SDS011;34673;52.808;17.856;2023-07-29T06:28:21;5.55;;;5.00;;
48853;SDS011;34673;52.808;17.856;2023-07-29T06:30:49;6.47;;;4.43;;
48853;SDS011;34673;52.808;17.856;2023-07-29T06:33:19;5.63;;;4.05;;
48853;SDS011;34673;52.808;17.856;2023-07-29T06:35:46;5.30;;;3.65;;
48853;SDS011;34673;52.808;17.856;2023-07-29T06:38:13;7.13;;;4.32;;
48853;SDS011;34673;52.808;17.856;2023-07-29T06:40:40;5.65;;;4.07;;
48853;SDS011;34673;52.808;17.856;2023-07-29T06:43:11;4.65;;;3.85;;
48853;SDS011;34673;52.808;17.856;2023-07-29T06:45:38;3.42;;;2.85;;
48853;SDS011;34673;52.808;17.856;2023-07-29T06:48:05;6.40;;;2.83;;
48853;SDS011;34673;52.808;17.856;2023-07-29T06:50:33;3.95;;;2.33;;
48853;SDS011;34673;52.808;17.856;2023-07-29T06:53:00;5.25;;;2.30;;
48853;SDS011;34673;52.808;17.856;2023-07-29T06:55:27;4.60;;;2.10;;
48853;SDS011;34673;52.808;17.856;2023-07-29T06:57:55;3.15;;;2.08;;
48853;SDS011;34673;52.808;17.856;2023-07-29T07:00:22;3.17;;;1.90;;
48853;SDS011;34673;52.808;17.856;2023-07-29T07:02:49;3.47;;;2.10;;
48853;SDS011;34673;52.808;17.856;2023-07-29T07:05:16;4.10;;;1.80;;
48853;SDS011;34673;52.808;17.856;2023-07-29T07:07:43;2.60;;;1.65;;
48853;SDS011;34673;52.808;17.856;2023-07-29T07:10:11;2.85;;;1.92;;
48853;SDS011;34673;52.808;17.856;2023-07-29T07:12:38;2.45;;;1.67;;
48853;SDS011;34673;52.808;17.856;2023-07-29T07:15:05;2.75;;;1.80;;
48853;SDS011;34673;52.808;17.856;2023-07-29T07:17:33;3.13;;;2.17;;
48853;SDS011;34673;52.808;17.856;2023-07-29T07:20:00;2.55;;;1.75;;
48853;SDS011;34673;52.808;17.856;2023-07-29T07:22:27;2.65;;;1.70;;
48853;SDS011;34673;52.808;17.856;2023-07-29T07:24:55;2.88;;;1.40;;
48853;SDS011;34673;52.808;17.856;2023-07-29T07:27:22;1.92;;;1.20;;
48853;SDS011;34673;52.808;17.856;2023-07-29T07:29:50;2.90;;;1.73;;
48853;SDS011;34673;52.808;17.856;2023-07-29T07:32:17;2.22;;;1.55;;
48853;SDS011;34673;52.808;17.856;2023-07-29T07:34:44;5.60;;;1.40;;
48853;SDS011;34673;52.808;17.856;2023-07-29T07:37:11;2.72;;;1.50;;
48853;SDS011;34673;52.808;17.856;2023-07-29T07:39:39;2.40;;;1.50;;
48853;SDS011;34673;52.808;17.856;2023-07-29T07:42:06;2.58;;;1.30;;
48853;SDS011;34673;52.808;17.856;2023-07-29T07:44:33;4.18;;;1.50;;
48853;SDS011;34673;52.808;17.856;2023-07-29T07:47:00;2.28;;;1.15;;
48853;SDS011;34673;52.808;17.856;2023-07-29T07:49:30;2.00;;;1.40;;
48853;SDS011;34673;52.808;17.856;2023-07-29T07:51:58;3.70;;;1.40;;
48853;SDS011;34673;52.808;17.856;2023-07-29T07:54:25;1.83;;;1.17;;
48853;SDS011;34673;52.808;17.856;2023-07-29T07:56:53;1.92;;;1.42;;
48853;SDS011;34673;52.808;17.856;2023-07-29T07:59:20;2.75;;;1.30;;
48853;SDS011;34673;52.808;17.856;2023-07-29T08:01:47;6.03;;;1.30;;
48853;SDS011;34673;52.808;17.856;2023-07-29T08:04:14;2.63;;;1.10;;
48853;SDS011;34673;52.808;17.856;2023-07-29T08:06:42;4.07;;;1.20;;
48853;SDS011;34673;52.808;17.856;2023-07-29T08:09:09;2.72;;;1.05;;
48853;SDS011;34673;52.808;17.856;2023-07-29T08:11:36;2.17;;;1.10;;
48853;SDS011;34673;52.808;17.856;2023-07-29T08:14:03;2.22;;;1.20;;
48853;SDS011;34673;52.808;17.856;2023-07-29T08:16:30;1.80;;;1.00;;
48853;SDS011;34673;52.808;17.856;2023-07-29T08:18:58;3.35;;;1.20;;
48853;SDS011;34673;52.808;17.856;2023-07-29T08:21:26;2.50;;;1.13;;
48853;SDS011;34673;52.808;17.856;2023-07-29T08:23:53;3.20;;;1.20;;
48853;SDS011;34673;52.808;17.856;2023-07-29T08:26:21;2.40;;;1.20;;
48853;SDS011;34673;52.808;17.856;2023-07-29T08:28:48;2.00;;;1.30;;
48853;SDS011;34673;52.808;17.856;2023-07-29T08:31:20;4.85;;;1.20;;
48853;SDS011;34673;52.808;17.856;2023-07-29T08:33:47;3.30;;;1.30;;
48853;SDS011;34673;52.808;17.856;2023-07-29T08:36:15;7.60;;;1.15;;
48853;SDS011;34673;52.808;17.856;2023-07-29T08:38:45;6.70;;;5.00;;
48853;SDS011;34673;52.808;17.856;2023-07-29T08:41:14;3.33;;;1.20;;
48853;SDS011;34673;52.808;17.856;2023-07-29T08:44:06;1.98;;;1.20;;
48853;SDS011;34673;52.808;17.856;2023-07-29T08:46:39;3.20;;;1.20;;
48853;SDS011;34673;52.808;17.856;2023-07-29T08:49:07;2.80;;;1.20;;
48853;SDS011;34673;52.808;17.856;2023-07-29T08:51:35;3.05;;;1.23;;
48853;SDS011;34673;52.808;17.856;2023-07-29T08:54:03;3.33;;;1.35;;
48853;SDS011;34673;52.808;17.856;2023-07-29T08:56:30;1.63;;;1.10;;
48853;SDS011;34673;52.808;17.856;2023-07-29T08:58:58;1.88;;;1.10;;
48853;SDS011;34673;52.808;17.856;2023-07-29T09:01:28;2.28;;;1.40;;
48853;SDS011;34673;52.808;17.856;2023-07-29T09:03:57;4.10;;;1.27;;
48853;SDS011;34673;52.808;17.856;2023-07-29T09:06:25;2.55;;;1.30;;
48853;SDS011;34673;52.808;17.856;2023-07-29T09:08:54;4.13;;;1.30;;
48853;SDS011;34673;52.808;17.856;2023-07-29T09:11:25;1.77;;;1.33;;
48853;SDS011;34673;52.808;17.856;2023-07-29T09:13:52;4.20;;;1.23;;
48853;SDS011;34673;52.808;17.856;2023-07-29T09:16:20;1.85;;;1.10;;
48853;SDS011;34673;52.808;17.856;2023-07-29T09:18:48;3.13;;;1.30;;
48853;SDS011;34673;52.808;17.856;2023-07-29T09:21:23;1.95;;;1.10;;
48853;SDS011;34673;52.808;17.856;2023-07-29T09:23:53;2.38;;;1.00;;
48853;SDS011;34673;52.808;17.856;2023-07-29T09:26:27;2.05;;;1.10;;
48853;SDS011;34673;52.808;17.856;2023-07-29T09:28:56;4.20;;;1.10;;
48853;SDS011;34673;52.808;17.856;2023-07-29T09:31:25;2.05;;;1.10;;
48853;SDS011;34673;52.808;17.856;2023-07-29T09:33:58;4.03;;;1.00;;
48853;SDS011;34673;52.808;17.856;2023-07-29T09:36:26;4.18;;;1.27;;
48853;SDS011;34673;52.808;17.856;2023-07-29T09:38:54;1.77;;;1.10;;
48853;SDS011;34673;52.808;17.856;2023-07-29T09:41:28;6.82;;;1.30;;
48853;SDS011;34673;52.808;17.856;2023-07-29T09:44:00;3.25;;;1.33;;
48853;SDS011;34673;52.808;17.856;2023-07-29T09:46:33;2.38;;;1.30;;
48853;SDS011;34673;52.808;17.856;2023-07-29T09:49:06;3.35;;;1.30;;
48853;SDS011;34673;52.808;17.856;2023-07-29T09:51:37;1.40;;;1.02;;
48853;SDS011;34673;52.808;17.856;2023-07-29T09:54:06;1.48;;;1.08;;
48853;SDS011;34673;52.808;17.856;2023-07-29T09:56:34;1.20;;;1.00;;
48853;SDS011;34673;52.808;17.856;2023-07-29T09:59:08;3.25;;;1.17;;
48853;SDS011;34673;52.808;17.856;2023-07-29T10:01:36;1.83;;;1.10;;
48853;SDS011;34673;52.808;17.856;2023-07-29T10:04:05;1.60;;;1.13;;
48853;SDS011;34673;52.808;17.856;2023-07-29T10:06:36;2.25;;;1.20;;
48853;SDS011;34673;52.808;17.856;2023-07-29T10:09:05;3.92;;;1.15;;
48853;SDS011;34673;52.808;17.856;2023-07-29T10:11:34;1.67;;;1.05;;
48853;SDS011;34673;52.808;17.856;2023-07-29T10:14:03;1.30;;;1.00;;
48853;SDS011;34673;52.808;17.856;2023-07-29T10:16:38;2.42;;;1.08;;
48853;SDS011;34673;52.808;17.856;2023-07-29T10:19:07;2.80;;;1.20;;
48853;SDS011;34673;52.808;17.856;2023-07-29T10:21:36;5.03;;;1.30;;
48853;SDS011;34673;52.808;17.856;2023-07-29T10:24:08;1.52;;;1.10;;
48853;SDS011;34673;52.808;17.856;2023-07-29T10:26:41;1.40;;;1.00;;
48853;SDS011;34673;52.808;17.856;2023-07-29T10:29:13;2.25;;;1.02;;
48853;SDS011;34673;52.808;17.856;2023-07-29T10:31:45;2.28;;;1.25;;
48853;SDS011;34673;52.808;17.856;2023-07-29T10:34:13;1.55;;;1.13;;
48853;SDS011;34673;52.808;17.856;2023-07-29T10:36:41;2.17;;;1.10;;
48853;SDS011;34673;52.808;17.856;2023-07-29T10:39:09;3.60;;;1.10;;
48853;SDS011;34673;52.808;17.856;2023-07-29T10:47:27;1.30;;;0.98;;
48853;SDS011;34673;52.808;17.856;2023-07-29T10:49:57;2.20;;;1.30;;
48853;SDS011;34673;52.808;17.856;2023-07-29T10:55:01;3.22;;;1.20;;
48853;SDS011;34673;52.808;17.856;2023-07-29T10:57:35;1.30;;;1.02;;
48853;SDS011;34673;52.808;17.856;2023-07-29T11:00:04;4.72;;;1.40;;
48853;SDS011;34673;52.808;17.856;2023-07-29T11:02:32;2.88;;;1.10;;
48853;SDS011;34673;52.808;17.856;2023-07-29T11:05:07;1.95;;;1.13;;
48853;SDS011;34673;52.808;17.856;2023-07-29T11:07:44;1.67;;;1.07;;
48853;SDS011;34673;52.808;17.856;2023-07-29T11:10:12;1.52;;;1.20;;
48853;SDS011;34673;52.808;17.856;2023-07-29T11:12:44;2.03;;;1.05;;
48853;SDS011;34673;52.808;17.856;2023-07-29T11:15:16;2.20;;;1.05;;
48853;SDS011;34673;52.808;17.856;2023-07-29T11:17:52;3.03;;;2.42;;
48853;SDS011;34673;52.808;17.856;2023-07-29T11:20:27;1.63;;;1.35;;
48853;SDS011;34673;52.808;17.856;2023-07-29T11:22:57;3.13;;;1.40;;
48853;SDS011;34673;52.808;17.856;2023-07-29T11:25:27;2.00;;;1.30;;
48853;SDS011;34673;52.808;17.856;2023-07-29T11:28:05;3.38;;;1.40;;
48853;SDS011;34673;52.808;17.856;2023-07-29T11:30:33;3.17;;;1.20;;
48853;SDS011;34673;52.808;17.856;2023-07-29T11:33:00;2.85;;;1.30;;
48853;SDS011;34673;52.808;17.856;2023-07-29T11:35:28;1.63;;;1.23;;
48853;SDS011;34673;52.808;17.856;2023-07-29T11:37:55;1.73;;;1.10;;
48853;SDS011;34673;52.808;17.856;2023-07-29T11:40:26;3.15;;;1.40;;
48853;SDS011;34673;52.808;17.856;2023-07-29T11:42:54;4.22;;;1.20;;
48853;SDS011;34673;52.808;17.856;2023-07-29T11:45:21;1.83;;;1.25;;
48853;SDS011;34673;52.808;17.856;2023-07-29T11:48:01;2.22;;;1.45;;
48853;SDS011;34673;52.808;17.856;2023-07-29T11:50:29;5.00;;;3.22;;
48853;SDS011;34673;52.808;17.856;2023-07-29T11:52:56;7.15;;;1.80;;
48853;SDS011;34673;52.808;17.856;2023-07-29T11:55:28;2.20;;;1.50;;
48853;SDS011;34673;52.808;17.856;2023-07-29T11:57:56;2.10;;;1.27;;
48853;SDS011;34673;52.808;17.856;2023-07-29T12:00:25;3.03;;;1.30;;
48853;SDS011;34673;52.808;17.856;2023-07-29T12:02:53;3.45;;;1.25;;
48853;SDS011;34673;52.808;17.856;2023-07-29T12:05:21;5.30;;;1.52;;
48853;SDS011;34673;52.808;17.856;2023-07-29T12:07:49;8.50;;;1.50;;
48853;SDS011;34673;52.808;17.856;2023-07-29T12:10:17;3.47;;;1.50;;
48853;SDS011;34673;52.808;17.856;2023-07-29T12:12:46;3.20;;;1.60;;
48853;SDS011;34673;52.808;17.856;2023-07-29T12:15:27;2.30;;;1.30;;
48853;SDS011;34673;52.808;17.856;2023-07-29T12:17:57;3.50;;;1.38;;
48853;SDS011;34673;52.808;17.856;2023-07-29T12:20:25;4.28;;;1.50;;
48853;SDS011;34673;52.808;17.856;2023-07-29T12:22:57;2.25;;;1.52;;
48853;SDS011;34673;52.808;17.856;2023-07-29T12:25:26;1.90;;;1.38;;
48853;SDS011;34673;52.808;17.856;2023-07-29T12:27:54;2.13;;;1.73;;
48853;SDS011;34673;52.808;17.856;2023-07-29T12:30:22;2.30;;;1.52;;
48853;SDS011;34673;52.808;17.856;2023-07-29T12:32:49;5.75;;;1.80;;
48853;SDS011;34673;52.808;17.856;2023-07-29T12:35:17;2.78;;;1.52;;
48853;SDS011;34673;52.808;17.856;2023-07-29T12:37:58;2.17;;;1.60;;
48853;SDS011;34673;52.808;17.856;2023-07-29T12:40:28;3.70;;;1.80;;
48853;SDS011;34673;52.808;17.856;2023-07-29T12:42:56;3.90;;;1.80;;
48853;SDS011;34673;52.808;17.856;2023-07-29T12:45:23;3.53;;;1.70;;
48853;SDS011;34673;52.808;17.856;2023-07-29T12:47:54;2.55;;;1.80;;
48853;SDS011;34673;52.808;17.856;2023-07-29T12:50:21;3.13;;;1.83;;
48853;SDS011;34673;52.808;17.856;2023-07-29T12:52:49;4.00;;;1.55;;
48853;SDS011;34673;52.808;17.856;2023-07-29T12:55:16;7.57;;;1.80;;
48853;SDS011;34673;52.808;17.856;2023-07-29T12:57:49;4.90;;;1.85;;
48853;SDS011;34673;52.808;17.856;2023-07-29T13:00:18;2.85;;;2.00;;
48853;SDS011;34673;52.808;17.856;2023-07-29T13:02:46;3.58;;;1.67;;
48853;SDS011;34673;52.808;17.856;2023-07-29T13:05:20;4.18;;;1.90;;
48853;SDS011;34673;52.808;17.856;2023-07-29T13:07:52;3.55;;;1.80;;
48853;SDS011;34673;52.808;17.856;2023-07-29T13:10:21;3.00;;;1.92;;
48853;SDS011;34673;52.808;17.856;2023-07-29T13:12:55;3.97;;;1.70;;
48853;SDS011;34673;52.808;17.856;2023-07-29T13:15:24;2.80;;;1.90;;
48853;SDS011;34673;52.808;17.856;2023-07-29T13:17:52;2.75;;;1.58;;
48853;SDS011;34673;52.808;17.856;2023-07-29T13:20:20;3.50;;;1.70;;
48853;SDS011;34673;52.808;17.856;2023-07-29T13:22:47;5.55;;;2.10;;
48853;SDS011;34673;52.808;17.856;2023-07-29T13:25:14;2.70;;;1.80;;
48853;SDS011;34673;52.808;17.856;2023-07-29T13:27:41;2.55;;;1.50;;
48853;SDS011;34673;52.808;17.856;2023-07-29T13:30:09;3.80;;;1.98;;
48853;SDS011;34673;52.808;17.856;2023-07-29T13:32:36;3.97;;;2.00;;
48853;SDS011;34673;52.808;17.856;2023-07-29T13:35:04;4.60;;;2.10;;
48853;SDS011;34673;52.808;17.856;2023-07-29T13:37:31;2.97;;;1.92;;
48853;SDS011;34673;52.808;17.856;2023-07-29T13:39:58;3.03;;;2.00;;
48853;SDS011;34673;52.808;17.856;2023-07-29T13:42:26;3.35;;;1.85;;
48853;SDS011;34673;52.808;17.856;2023-07-29T13:44:53;5.10;;;2.22;;
48853;SDS011;34673;52.808;17.856;2023-07-29T13:47:20;3.42;;;2.17;;
48853;SDS011;34673;52.808;17.856;2023-07-29T13:49:48;3.85;;;2.15;;
48853;SDS011;34673;52.808;17.856;2023-07-29T13:52:15;3.45;;;2.13;;
48853;SDS011;34673;52.808;17.856;2023-07-29T13:54:45;3.40;;;1.83;;
48853;SDS011;34673;52.808;17.856;2023-07-29T13:57:12;3.65;;;2.05;;
48853;SDS011;34673;52.808;17.856;2023-07-29T13:59:39;4.22;;;2.08;;
48853;SDS011;34673;52.808;17.856;2023-07-29T14:02:07;3.92;;;2.00;;
48853;SDS011;34673;52.808;17.856;2023-07-29T14:04:34;2.90;;;1.85;;
48853;SDS011;34673;52.808;17.856;2023-07-29T14:07:02;3.75;;;1.90;;
48853;SDS011;34673;52.808;17.856;2023-07-29T14:09:30;2.65;;;2.20;;
48853;SDS011;34673;52.808;17.856;2023-07-29T14:11:58;3.42;;;2.10;;
48853;SDS011;34673;52.808;17.856;2023-07-29T14:14:25;3.75;;;2.20;;
48853;SDS011;34673;52.808;17.856;2023-07-29T14:16:52;3.28;;;2.42;;
48853;SDS011;34673;52.808;17.856;2023-07-29T14:19:20;4.10;;;2.35;;
48853;SDS011;34673;52.808;17.856;2023-07-29T14:21:49;2.83;;;2.10;;
48853;SDS011;34673;52.808;17.856;2023-07-29T14:24:17;4.53;;;2.30;;
48853;SDS011;34673;52.808;17.856;2023-07-29T14:26:44;2.92;;;2.10;;
48853;SDS011;34673;52.808;17.856;2023-07-29T14:29:11;3.13;;;2.28;;
48853;SDS011;34673;52.808;17.856;2023-07-29T14:31:38;7.78;;;3.97;;
48853;SDS011;34673;52.808;17.856;2023-07-29T14:34:06;2.97;;;1.90;;
48853;SDS011;34673;52.808;17.856;2023-07-29T14:36:33;2.58;;;2.00;;
48853;SDS011;34673;52.808;17.856;2023-07-29T14:39:01;4.45;;;2.35;;
48853;SDS011;34673;52.808;17.856;2023-07-29T14:41:29;3.70;;;2.40;;
48853;SDS011;34673;52.808;17.856;2023-07-29T14:43:57;4.32;;;2.03;;
48853;SDS011;34673;52.808;17.856;2023-07-29T14:46:24;2.90;;;2.30;;
48853;SDS011;34673;52.808;17.856;2023-07-29T14:48:51;5.07;;;2.30;;
48853;SDS011;34673;52.808;17.856;2023-07-29T14:51:18;3.50;;;2.20;;
48853;SDS011;34673;52.808;17.856;2023-07-29T14:53:48;3.72;;;2.20;;
48853;SDS011;34673;52.808;17.856;2023-07-29T14:56:15;3.67;;;2.35;;
48853;SDS011;34673;52.808;17.856;2023-07-29T15:01:12;6.53;;;2.35;;